createdAt,value
2023-02-23T00:02:20.960Z,-2.64
2023-02-23T00:04:49.366Z,-2.66
2023-02-23T00:07:21.141Z,-2.70
2023-02-23T00:09:51.187Z,-2.75
2023-02-23T00:12:22.367Z,-2.79
2023-02-23T00:14:50.726Z,-2.83
2023-02-23T00:17:20.308Z,-2.86
2023-02-23T00:19:57.739Z,-2.91
2023-02-23T00:22:31.967Z,-2.95
2023-02-23T00:25:03.446Z,-2.96
2023-02-23T00:27:34.547Z,-2.97
2023-02-23T00:30:05.148Z,-2.98
2023-02-23T00:32:40.431Z,-2.98
2023-02-23T00:35:18.936Z,-2.97
2023-02-23T00:37:54.374Z,-2.99
2023-02-23T00:40:27.461Z,-3.00
2023-02-23T00:42:59.936Z,-3.01
2023-02-23T00:45:30.983Z,-3.03
2023-02-23T00:48:02.575Z,-3.04
2023-02-23T00:50:45.125Z,-3.06
2023-02-23T00:53:20.036Z,-3.08
2023-02-23T00:56:08.656Z,-3.13
2023-02-23T00:58:56.864Z,-3.16
2023-02-23T01:01:29.127Z,-3.19
2023-02-23T01:04:12.767Z,-3.22
2023-02-23T01:06:55.700Z,-3.24
2023-02-23T01:09:31.695Z,-3.27
2023-02-23T01:12:02.013Z,-3.31
2023-02-23T01:14:31.547Z,-3.34
2023-02-23T01:17:00.682Z,-3.37
2023-02-23T01:20:02.057Z,-3.37
2023-02-23T01:22:31.789Z,-3.35
2023-02-23T01:25:00.241Z,-3.34
2023-02-23T01:27:29.478Z,-3.34
2023-02-23T01:29:57.665Z,-3.36
2023-02-23T01:32:27.078Z,-3.37
2023-02-23T01:34:56.115Z,-3.40
2023-02-23T01:37:24.552Z,-3.43
2023-02-23T01:39:53.407Z,-3.46
2023-02-23T01:42:43.261Z,-3.48
2023-02-23T01:45:24.053Z,-3.52
2023-02-23T01:47:55.117Z,-3.55
2023-02-23T01:50:25.460Z,-3.58
2023-02-23T01:52:53.775Z,-3.60
2023-02-23T01:55:26.084Z,-3.64
2023-02-23T01:57:55.940Z,-3.68
2023-02-23T02:00:26.170Z,-3.72
2023-02-23T02:02:54.823Z,-3.75
2023-02-23T02:05:23.291Z,-3.79
2023-02-23T02:07:59.080Z,-3.80
2023-02-23T02:10:39.753Z,-3.83
2023-02-23T02:13:09.040Z,-3.85
2023-02-23T02:15:41.151Z,-3.89
2023-02-23T02:18:38.358Z,-3.92
2023-02-23T02:21:18.173Z,-3.97
2023-02-23T02:24:16.068Z,-4.03
2023-02-23T02:26:50.208Z,-4.10
2023-02-23T02:29:29.034Z,-4.15
2023-02-23T02:32:16.609Z,-4.18
2023-02-23T02:35:03.958Z,-4.20
2023-02-23T02:37:42.116Z,-4.23
2023-02-23T02:40:22.724Z,-4.25
2023-02-23T02:43:08.984Z,-4.26
2023-02-23T02:45:50.461Z,-4.27
2023-02-23T02:48:21.915Z,-4.29
2023-02-23T02:51:18.224Z,-4.31
2023-02-23T02:54:15.302Z,-4.35
2023-02-23T02:56:44.414Z,-4.39
2023-02-23T02:59:33.418Z,-4.43
2023-02-23T03:02:21.696Z,-4.45
2023-02-23T03:05:08.717Z,-4.49
2023-02-23T03:07:59.730Z,-4.51
2023-02-23T03:11:21.510Z,-4.53
2023-02-23T03:14:15.698Z,-4.56
2023-02-23T03:17:15.503Z,-4.57
2023-02-23T03:20:16.319Z,-4.59
2023-02-23T03:23:14.438Z,-4.62
2023-02-23T03:26:25.758Z,-4.65
2023-02-23T03:29:23.118Z,-4.64
2023-02-23T03:32:38.603Z,-4.64
2023-02-23T03:35:33.545Z,-4.73
2023-02-23T03:38:29.640Z,-4.80
2023-02-23T03:41:17.188Z,-4.85
2023-02-23T03:44:09.523Z,-4.89
2023-02-23T03:46:56.967Z,-4.91
2023-02-23T03:49:45.512Z,-4.91
2023-02-23T03:52:39.297Z,-4.92
2023-02-23T03:55:41.063Z,-4.88
2023-02-23T03:58:29.609Z,-4.75
2023-02-23T04:01:18.065Z,-4.73
2023-02-23T04:04:05.318Z,-4.74
2023-02-23T04:06:54.887Z,-4.85
2023-02-23T04:09:41.758Z,-4.94
2023-02-23T04:12:49.718Z,-4.95
2023-02-23T04:15:33.322Z,-4.97
2023-02-23T04:18:06.639Z,-4.99
2023-02-23T04:20:35.532Z,-5.02
2023-02-23T04:23:04.575Z,-5.05
2023-02-23T04:25:33.257Z,-5.09
2023-02-23T04:28:01.439Z,-5.10
2023-02-23T04:30:30.667Z,-5.12
2023-02-23T04:32:59.550Z,-5.14
2023-02-23T04:35:30.105Z,-5.14
2023-02-23T04:38:01.716Z,-5.14
2023-02-23T04:40:30.117Z,-5.18
2023-02-23T04:42:58.435Z,-5.22
2023-02-23T04:45:26.820Z,-5.23
2023-02-23T04:47:55.099Z,-5.23
2023-02-23T04:50:25.517Z,-5.24
2023-02-23T04:52:53.987Z,-5.28
2023-02-23T04:55:24.668Z,-5.28
2023-02-23T04:57:57.963Z,-5.29
2023-02-23T05:00:27.106Z,-5.29
2023-02-23T05:02:56.369Z,-5.28
2023-02-23T05:05:25.682Z,-5.28
2023-02-23T05:07:55.205Z,-5.30
2023-02-23T05:10:25.030Z,-5.28
2023-02-23T05:12:55.532Z,-5.23
2023-02-23T05:15:23.753Z,-5.20
2023-02-23T05:17:51.937Z,-5.18
2023-02-23T05:20:24.777Z,-5.16
2023-02-23T05:22:53.184Z,-5.13
2023-02-23T05:25:21.474Z,-5.08
2023-02-23T05:27:53.138Z,-5.04
2023-02-23T05:30:21.729Z,-5.03
2023-02-23T05:32:51.642Z,-5.05
2023-02-23T05:35:20.050Z,-5.05
2023-02-23T05:37:48.300Z,-5.01
2023-02-23T05:40:16.697Z,-4.95
2023-02-23T05:42:46.763Z,-4.91
2023-02-23T05:45:15.247Z,-4.86
2023-02-23T05:47:43.505Z,-4.81
2023-02-23T05:50:12.054Z,-4.77
2023-02-23T05:52:41.814Z,-4.74
2023-02-23T05:55:11.905Z,-4.67
2023-02-23T05:57:41.281Z,-4.61
2023-02-23T06:00:11.092Z,-4.54
2023-02-23T06:02:42.002Z,-4.49
2023-02-23T06:05:11.597Z,-4.43
2023-02-23T06:07:39.791Z,-4.41
2023-02-23T06:10:08.375Z,-4.36
2023-02-23T06:12:36.983Z,-4.31
2023-02-23T06:15:06.267Z,-4.24
2023-02-23T06:17:36.017Z,-4.20
2023-02-23T06:20:05.588Z,-4.15
2023-02-23T06:22:37.214Z,-4.09
2023-02-23T06:25:22.351Z,-4.03
2023-02-23T06:28:16.229Z,-3.95
2023-02-23T06:31:18.513Z,-3.92
2023-02-23T06:34:00.685Z,-3.86
2023-02-23T06:36:29.768Z,-3.75
2023-02-23T06:38:59.234Z,-3.67
2023-02-23T06:41:27.929Z,-3.63
2023-02-23T06:43:56.154Z,-3.60
2023-02-23T06:46:24.866Z,-3.58
2023-02-23T06:49:03.003Z,-3.53
2023-02-23T06:51:31.855Z,-3.47
2023-02-23T06:54:00.105Z,-3.42
2023-02-23T06:56:28.360Z,-3.36
2023-02-23T06:58:56.665Z,-3.28
2023-02-23T07:01:25.463Z,-3.23
2023-02-23T07:03:53.778Z,-3.18
2023-02-23T07:06:22.247Z,-3.16
2023-02-23T07:08:50.880Z,-3.10
2023-02-23T07:11:20.522Z,-3.03
2023-02-23T07:13:49.432Z,-2.95
2023-02-23T07:16:17.811Z,-2.89
2023-02-23T07:18:46.125Z,-2.83
2023-02-23T07:21:14.429Z,-2.72
2023-02-23T07:23:43.113Z,-2.69
2023-02-23T07:26:15.615Z,-2.71
2023-02-23T07:29:04.511Z,-2.67
2023-02-23T07:31:46.730Z,-2.59
2023-02-23T07:34:15.238Z,-2.55
2023-02-23T07:36:43.434Z,-2.49
2023-02-23T07:39:11.996Z,-2.39
2023-02-23T07:41:40.583Z,-2.29
2023-02-23T07:44:17.154Z,-2.21
2023-02-23T07:46:46.653Z,-2.17
2023-02-23T07:49:14.882Z,-2.06
2023-02-23T07:51:43.347Z,-1.95
2023-02-23T07:54:12.445Z,-1.88
2023-02-23T07:56:40.726Z,-1.75
2023-02-23T07:59:08.981Z,-1.61
2023-02-23T08:01:39.312Z,-1.47
2023-02-23T08:04:07.725Z,-1.34
2023-02-23T08:06:37.435Z,-1.25
2023-02-23T08:09:06.412Z,-1.21
2023-02-23T08:11:35.380Z,-1.18
2023-02-23T08:14:04.111Z,-1.14
2023-02-23T08:16:33.112Z,-1.11
2023-02-23T08:19:01.553Z,-1.09
2023-02-23T08:21:30.123Z,-1.05
2023-02-23T08:24:00.277Z,-1.00
2023-02-23T08:26:31.432Z,-0.97
2023-02-23T08:29:00.973Z,-0.92
2023-02-23T08:31:29.880Z,-0.85
2023-02-23T08:33:58.733Z,-0.80
2023-02-23T08:36:27.433Z,-0.76
2023-02-23T08:38:56.111Z,-0.72
2023-02-23T08:41:25.838Z,-0.60
2023-02-23T08:43:54.499Z,-0.47
2023-02-23T08:46:22.836Z,-0.37
2023-02-23T08:48:51.554Z,-0.26
2023-02-23T08:51:20.080Z,-0.17
2023-02-23T08:53:48.596Z,-0.13
2023-02-23T08:56:16.864Z,-0.09
2023-02-23T08:58:45.238Z,-0.06
2023-02-23T09:01:18.593Z,-0.01
2023-02-23T09:03:47.850Z,0.07
2023-02-23T09:06:18.890Z,0.15
2023-02-23T09:08:47.470Z,0.18
2023-02-23T09:11:15.705Z,0.22
2023-02-23T09:13:45.026Z,0.24
2023-02-23T09:16:13.351Z,0.29
2023-02-23T09:18:42.149Z,0.35
2023-02-23T09:21:19.656Z,0.41
2023-02-23T09:23:52.721Z,0.45
2023-02-23T09:26:32.976Z,0.44
2023-02-23T09:29:01.802Z,0.46
2023-02-23T09:31:33.152Z,0.51
2023-02-23T09:34:02.078Z,0.54
2023-02-23T09:36:34.796Z,0.49
2023-02-23T09:39:03.740Z,0.54
2023-02-23T09:41:43.913Z,0.60
2023-02-23T09:44:34.368Z,0.57
2023-02-23T09:47:15.196Z,0.58
2023-02-23T09:49:45.404Z,0.65
2023-02-23T09:52:19.852Z,0.67
2023-02-23T09:54:48.649Z,0.75
2023-02-23T09:57:24.431Z,0.89
2023-02-23T09:59:53.458Z,1.01
2023-02-23T10:02:23.746Z,1.00
2023-02-23T10:05:02.317Z,0.81
2023-02-23T10:07:50.244Z,0.79
2023-02-23T10:10:32.521Z,0.86
2023-02-23T10:13:16.174Z,0.81
2023-02-23T10:15:45.845Z,0.81
2023-02-23T10:18:20.933Z,0.90
2023-02-23T10:21:09.603Z,0.92
2023-02-23T10:23:49.399Z,0.97
2023-02-23T10:26:20.047Z,1.06
2023-02-23T10:28:49.083Z,1.12
2023-02-23T10:31:45.407Z,1.20
2023-02-23T10:34:15.421Z,1.25
2023-02-23T10:36:57.844Z,1.12
2023-02-23T10:39:26.593Z,1.04
2023-02-23T10:41:56.162Z,1.13
2023-02-23T10:44:26.414Z,1.33
2023-02-23T10:47:00.534Z,1.53
2023-02-23T10:49:38.118Z,1.73
2023-02-23T10:52:13.813Z,1.91
2023-02-23T10:54:50.004Z,2.03
2023-02-23T10:57:34.578Z,1.90
2023-02-23T11:00:33.108Z,1.65
2023-02-23T11:03:01.853Z,1.49
2023-02-23T11:05:37.286Z,1.51
2023-02-23T11:08:21.749Z,1.50
2023-02-23T11:10:56.784Z,1.54
2023-02-23T11:13:27.457Z,1.61
2023-02-23T11:16:00.987Z,1.71
2023-02-23T11:18:34.244Z,1.82
2023-02-23T11:21:12.506Z,1.94
2023-02-23T11:23:40.851Z,2.02
2023-02-23T11:26:34.524Z,2.03
2023-02-23T11:29:14.188Z,1.91
2023-02-23T11:31:48.931Z,1.94
2023-02-23T11:34:33.014Z,2.05
2023-02-23T11:37:29.899Z,2.15
2023-02-23T11:41:00.224Z,2.19
2023-02-23T11:43:28.675Z,2.23
2023-02-23T11:45:58.683Z,2.26
2023-02-23T11:48:30.519Z,2.24
2023-02-23T11:50:59.138Z,2.21
2023-02-23T11:53:32.684Z,2.22
2023-02-23T11:56:08.316Z,2.21
2023-02-23T11:58:49.651Z,2.25
2023-02-23T12:01:21.230Z,2.24
2023-02-23T12:03:50.584Z,2.30
2023-02-23T12:06:33.357Z,2.35
2023-02-23T12:09:04.921Z,2.37
2023-02-23T12:11:38.192Z,2.39
2023-02-23T12:14:18.208Z,2.39
2023-02-23T12:16:48.722Z,2.38
2023-02-23T12:19:29.033Z,2.48
2023-02-23T12:22:18.826Z,2.56
2023-02-23T12:25:19.592Z,2.62
2023-02-23T12:28:19.733Z,2.59
2023-02-23T12:31:12.020Z,2.50
2023-02-23T12:33:48.056Z,2.43
2023-02-23T12:36:16.667Z,2.46
2023-02-23T12:38:56.482Z,2.65
2023-02-23T12:41:49.544Z,2.71
2023-02-23T12:44:39.873Z,2.71
2023-02-23T12:47:16.552Z,2.75
2023-02-23T12:49:46.981Z,2.77
2023-02-23T12:52:25.963Z,2.80
2023-02-23T12:54:54.353Z,2.85
2023-02-23T12:57:38.910Z,2.87
2023-02-23T13:00:33.008Z,2.86
2023-02-23T13:03:39.110Z,2.71
2023-02-23T13:06:31.228Z,2.71
2023-02-23T13:08:59.450Z,2.76
2023-02-23T13:11:31.808Z,2.75
2023-02-23T13:14:15.025Z,2.79
2023-02-23T13:16:56.647Z,2.80
2023-02-23T13:19:27.376Z,2.78
2023-02-23T13:21:59.832Z,2.75
2023-02-23T13:24:33.640Z,2.75
2023-02-23T13:27:07.904Z,2.77
2023-02-23T13:29:40.164Z,2.83
2023-02-23T13:32:13.180Z,2.89
2023-02-23T13:34:44.518Z,2.90
2023-02-23T13:37:13.784Z,2.87
2023-02-23T13:40:13.765Z,2.78
2023-02-23T13:43:01.310Z,2.68
2023-02-23T13:45:44.248Z,2.65
2023-02-23T13:48:18.860Z,2.67
2023-02-23T13:51:06.870Z,2.72
2023-02-23T13:53:47.277Z,2.76
2023-02-23T13:56:16.855Z,2.77
2023-02-23T13:58:51.513Z,2.79
2023-02-23T14:01:26.929Z,2.81
2023-02-23T14:03:57.533Z,2.83
2023-02-23T14:06:27.450Z,2.84
2023-02-23T14:09:17.424Z,2.85
2023-02-23T14:11:51.347Z,2.85
2023-02-23T14:14:34.725Z,2.84
2023-02-23T14:17:35.619Z,2.84
2023-02-23T14:20:27.852Z,2.86
2023-02-23T14:23:23.189Z,2.83
2023-02-23T14:26:12.199Z,2.82
2023-02-23T14:29:11.287Z,2.82
2023-02-23T14:31:40.146Z,2.77
2023-02-23T14:34:10.042Z,2.72
2023-02-23T14:36:44.072Z,2.69
2023-02-23T14:39:26.372Z,2.66
2023-02-23T14:41:59.140Z,2.62
2023-02-23T14:44:31.188Z,2.56
2023-02-23T14:47:13.456Z,2.50
2023-02-23T14:49:52.138Z,2.42
2023-02-23T14:52:31.571Z,2.32
2023-02-23T14:55:29.184Z,2.21
2023-02-23T14:57:58.435Z,2.11
2023-02-23T15:00:32.815Z,2.01
2023-02-23T15:03:09.346Z,1.93
2023-02-23T15:05:57.615Z,1.82
2023-02-23T15:08:31.201Z,1.74
2023-02-23T15:11:12.240Z,1.62
2023-02-23T15:13:51.802Z,1.49
2023-02-23T15:16:37.810Z,1.37
2023-02-23T15:19:25.427Z,1.24
2023-02-23T15:22:41.674Z,1.10
2023-02-23T15:25:16.556Z,1.03
2023-02-23T15:27:46.042Z,0.88
2023-02-23T15:30:25.300Z,0.74
2023-02-23T15:33:06.371Z,0.59
2023-02-23T15:35:54.428Z,0.44
2023-02-23T15:38:42.361Z,0.32
2023-02-23T15:41:26.137Z,0.21
2023-02-23T15:43:56.546Z,0.10
2023-02-23T15:46:26.921Z,0.01
2023-02-23T15:48:56.380Z,-0.08
2023-02-23T15:51:49.081Z,-0.18
2023-02-23T15:54:35.526Z,-0.28
2023-02-23T15:57:06.843Z,-0.37
2023-02-23T15:59:36.963Z,-0.44
2023-02-23T16:02:14.895Z,-0.51
2023-02-23T16:04:49.141Z,-0.56
2023-02-23T16:07:19.593Z,-0.60
2023-02-23T16:09:52.868Z,-0.66
2023-02-23T16:12:36.629Z,-0.72
2023-02-23T16:15:36.634Z,-0.79
2023-02-23T16:18:16.139Z,-0.83
2023-02-23T16:20:56.941Z,-0.85
2023-02-23T16:23:37.692Z,-0.88
2023-02-23T16:26:27.418Z,-0.91
2023-02-23T16:29:00.487Z,-0.93
2023-02-23T16:31:49.088Z,-0.95
2023-02-23T16:34:24.345Z,-0.96
2023-02-23T16:37:00.202Z,-0.98
2023-02-23T16:39:29.815Z,-1.00
2023-02-23T16:41:58.833Z,-1.00
2023-02-23T16:44:34.228Z,-1.02
2023-02-23T16:47:03.906Z,-1.02
2023-02-23T16:49:34.536Z,-1.04
2023-02-23T16:52:05.107Z,-1.05
2023-02-23T16:54:33.670Z,-1.06
2023-02-23T16:57:04.445Z,-1.07
2023-02-23T16:59:35.845Z,-1.07
2023-02-23T17:02:12.461Z,-1.06
2023-02-23T17:04:49.573Z,-1.06
2023-02-23T17:07:27.337Z,-1.06
2023-02-23T17:10:04.237Z,-1.07
2023-02-23T17:12:56.550Z,-1.06
2023-02-23T17:15:56.759Z,-1.06
2023-02-23T17:18:46.308Z,-1.07
2023-02-23T17:21:26.048Z,-1.08
2023-02-23T17:24:10.495Z,-1.08
2023-02-23T17:27:12.577Z,-1.06
2023-02-23T17:30:00.722Z,-1.06
2023-02-23T17:32:36.359Z,-1.03
2023-02-23T17:35:25.411Z,-1.03
2023-02-23T17:38:15.514Z,-1.02
2023-02-23T17:40:53.172Z,-1.02
2023-02-23T17:43:35.668Z,-1.03
2023-02-23T17:46:33.566Z,-1.04
2023-02-23T17:49:16.164Z,-1.06
2023-02-23T17:51:44.520Z,-1.06
2023-02-23T17:54:13.163Z,-1.07
2023-02-23T17:56:41.398Z,-1.07
2023-02-23T17:59:10.858Z,-1.07
2023-02-23T18:01:40.500Z,-1.07
2023-02-23T18:04:09.364Z,-1.06
2023-02-23T18:06:38.907Z,-1.07
2023-02-23T18:09:08.077Z,-1.07
2023-02-23T18:11:36.440Z,-1.08
2023-02-23T18:14:05.104Z,-1.08
2023-02-23T18:16:34.878Z,-1.10
2023-02-23T18:19:06.564Z,-1.09
2023-02-23T18:21:39.676Z,-1.10
2023-02-23T18:24:08.795Z,-1.10
2023-02-23T18:26:38.677Z,-1.11
2023-02-23T18:29:07.809Z,-1.12
2023-02-23T18:31:39.246Z,-1.13
2023-02-23T18:34:08.832Z,-1.15
2023-02-23T18:36:37.277Z,-1.16
2023-02-23T18:39:07.092Z,-1.17
2023-02-23T18:41:37.405Z,-1.17
2023-02-23T18:44:12.760Z,-1.18
2023-02-23T18:46:43.232Z,-1.18
2023-02-23T18:49:17.572Z,-1.20
2023-02-23T18:51:49.204Z,-1.20
2023-02-23T18:54:21.167Z,-1.20
2023-02-23T18:56:49.462Z,-1.20
2023-02-23T18:59:17.867Z,-1.13
2023-02-23T19:01:49.581Z,-1.17
2023-02-23T19:04:17.984Z,-1.19
2023-02-23T19:06:47.432Z,-1.18
2023-02-23T19:09:20.179Z,-1.17
2023-02-23T19:11:51.714Z,-1.16
2023-02-23T19:14:32.967Z,-1.15
2023-02-23T19:17:09.896Z,-1.14
2023-02-23T19:19:38.321Z,-1.13
2023-02-23T19:22:09.930Z,-1.13
2023-02-23T19:24:42.059Z,-1.14
2023-02-23T19:27:11.097Z,-1.13
2023-02-23T19:29:40.617Z,-1.11
2023-02-23T19:32:09.952Z,-1.09
2023-02-23T19:34:40.696Z,-1.09
2023-02-23T19:37:16.457Z,-1.08
2023-02-23T19:39:46.693Z,-1.06
2023-02-23T19:42:18.600Z,-1.05
2023-02-23T19:44:48.074Z,-1.07
2023-02-23T19:47:16.438Z,-1.12
2023-02-23T19:49:45.264Z,-1.22
2023-02-23T19:52:13.549Z,-1.32
2023-02-23T19:54:41.887Z,-1.41
2023-02-23T19:57:10.711Z,-1.45
2023-02-23T19:59:39.096Z,-1.50
2023-02-23T20:02:11.278Z,-1.55
2023-02-23T20:04:39.717Z,-1.57
2023-02-23T20:07:10.333Z,-1.59
2023-02-23T20:09:38.732Z,-1.61
2023-02-23T20:12:07.214Z,-1.63
2023-02-23T20:14:39.064Z,-1.66
2023-02-23T20:17:13.923Z,-1.68
2023-02-23T20:19:44.506Z,-1.71
2023-02-23T20:22:12.725Z,-1.73
2023-02-23T20:24:41.439Z,-1.74
2023-02-23T20:27:10.034Z,-1.73
2023-02-23T20:29:45.181Z,-1.73
2023-02-23T20:32:18.743Z,-1.71
2023-02-23T20:34:50.653Z,-1.68
2023-02-23T20:37:19.237Z,-1.64
2023-02-23T21:00:20.399Z,-0.92
2023-02-23T21:02:48.777Z,-0.59
2023-02-23T21:05:17.171Z,-0.63
2023-02-23T21:07:45.490Z,-0.65
2023-02-23T21:10:14.135Z,-0.68
2023-02-23T21:12:42.503Z,-0.73
2023-02-23T21:15:18.390Z,-0.84
2023-02-23T21:17:46.739Z,-0.93
2023-02-23T21:20:15.871Z,-0.97
2023-02-23T21:22:44.121Z,-1.04
2023-02-23T21:25:13.224Z,-1.09
2023-02-23T21:28:02.144Z,-1.15
2023-02-23T21:30:30.769Z,-1.17
2023-02-23T21:33:00.398Z,-1.18
2023-02-23T21:35:28.892Z,-1.16
2023-02-23T21:37:57.869Z,-1.14
2023-02-23T21:40:26.961Z,-1.11
2023-02-23T21:42:55.942Z,-1.07
2023-02-23T21:45:24.225Z,-1.04
2023-02-23T21:47:52.612Z,-1.00
2023-02-23T21:50:21.915Z,-0.95
2023-02-23T21:52:54.468Z,-0.91
2023-02-23T21:55:23.242Z,-0.87
2023-02-23T21:57:52.583Z,-0.84
2023-02-23T22:00:21.941Z,-0.82
2023-02-23T22:02:51.212Z,-0.80
2023-02-23T22:05:20.007Z,-0.79
2023-02-23T22:07:49.994Z,-0.77
2023-02-23T22:10:20.353Z,-0.77
2023-02-23T22:12:50.349Z,-0.78
2023-02-23T22:15:20.460Z,-0.77
2023-02-23T22:17:48.948Z,-0.77
2023-02-23T22:20:20.397Z,-0.77
2023-02-23T22:22:51.445Z,-0.76
2023-02-23T22:25:20.235Z,-0.77
2023-02-23T22:27:48.739Z,-0.77
2023-02-23T22:30:17.236Z,-0.76
2023-02-23T22:32:46.791Z,-0.75
2023-02-23T22:35:15.721Z,-0.75
2023-02-23T22:37:44.044Z,-0.74
2023-02-23T22:40:17.143Z,-0.73
2023-02-23T22:42:48.678Z,-0.71
2023-02-23T22:45:18.044Z,-0.72
2023-02-23T22:47:46.514Z,-0.71
2023-02-23T22:50:18.244Z,-0.72
2023-02-23T22:52:52.496Z,-0.72
2023-02-23T22:55:20.873Z,-0.74
2023-02-23T22:57:49.673Z,-0.75
2023-02-23T23:00:19.127Z,-0.77
2023-02-23T23:02:47.756Z,-0.76
2023-02-23T23:05:16.446Z,-0.77
2023-02-23T23:07:47.280Z,-0.77
2023-02-23T23:10:18.736Z,-0.77
2023-02-23T23:12:47.214Z,-0.78
2023-02-23T23:15:17.352Z,-0.78
2023-02-23T23:17:48.686Z,-0.76
2023-02-23T23:20:18.828Z,-0.74
2023-02-23T23:22:47.066Z,-0.73
2023-02-23T23:25:23.379Z,-0.73
2023-02-23T23:27:54.650Z,-0.72
2023-02-23T23:30:29.616Z,-0.69
2023-02-23T23:32:58.586Z,-0.69
2023-02-23T23:35:27.123Z,-0.70
2023-02-23T23:37:57.858Z,-0.70
2023-02-23T23:40:26.547Z,-0.70
2023-02-23T23:42:56.165Z,-0.70
2023-02-23T23:45:25.333Z,-0.69
2023-02-23T23:47:53.638Z,-0.69
2023-02-23T23:50:27.520Z,-0.67
2023-02-23T23:52:57.305Z,-0.65
2023-02-23T23:55:31.482Z,-0.65
2023-02-23T23:58:00.674Z,-0.65
